createdAt,value
2019-04-30T00:01:26.410Z,88.85
2019-04-30T00:04:05.741Z,88.90
2019-04-30T00:06:39.476Z,88.86
2019-04-30T00:09:15.218Z,88.64
2019-04-30T00:11:50.536Z,88.75
2019-04-30T00:14:20.387Z,89.01
2019-04-30T00:16:52.013Z,88.88
2019-04-30T00:19:23.462Z,88.82
2019-04-30T00:22:00.096Z,88.63
2019-04-30T00:24:28.322Z,88.57
2019-04-30T00:26:59.927Z,88.60
2019-04-30T00:29:32.821Z,88.63
2019-04-30T00:32:07.799Z,88.75
2019-04-30T00:34:39.372Z,88.67
2019-04-30T00:37:13.989Z,88.48
2019-04-30T00:39:50.704Z,88.42
2019-04-30T00:42:24.116Z,88.43
2019-04-30T00:44:51.188Z,88.60
2019-04-30T00:47:22.780Z,88.52
2019-04-30T00:49:57.554Z,88.50
2019-04-30T00:52:29.568Z,88.39
2019-04-30T00:55:04.838Z,88.64
2019-04-30T00:57:37.295Z,88.79
2019-04-30T01:00:12.200Z,88.78
2019-04-30T01:03:00.807Z,88.50
2019-04-30T01:05:32.942Z,88.78
2019-04-30T01:08:07.029Z,88.12
2019-04-30T01:10:38.264Z,87.72
2019-04-30T01:13:11.899Z,87.79
2019-04-30T01:15:44.116Z,88.15
2019-04-30T01:18:16.264Z,88.17
2019-04-30T01:20:48.753Z,88.30
2019-04-30T01:23:21.144Z,88.04
2019-04-30T01:25:52.663Z,88.02
2019-04-30T01:28:24.450Z,87.76
2019-04-30T01:30:58.695Z,87.87
2019-04-30T01:33:34.468Z,88.26
2019-04-30T01:36:04.049Z,88.41
2019-04-30T01:38:40.019Z,88.75
2019-04-30T01:41:09.715Z,88.78
2019-04-30T01:43:41.346Z,88.57
2019-04-30T01:46:14.022Z,88.45
2019-04-30T01:48:48.621Z,88.05
2019-04-30T01:51:21.783Z,88.04
2019-04-30T01:53:52.374Z,88.47
2019-04-30T01:56:25.648Z,88.53
2019-04-30T01:58:59.537Z,88.94
2019-04-30T02:01:33.039Z,88.80
2019-04-30T02:04:04.306Z,88.98
2019-04-30T02:06:35.861Z,89.22
2019-04-30T02:09:09.136Z,89.13
2019-04-30T02:11:40.611Z,89.53
2019-04-30T02:14:12.231Z,89.56
2019-04-30T02:16:43.702Z,89.81
2019-04-30T02:19:15.232Z,90.27
2019-04-30T02:21:48.647Z,89.79
2019-04-30T02:24:21.326Z,89.37
2019-04-30T02:26:52.703Z,89.11
2019-04-30T02:29:24.364Z,89.64
2019-04-30T02:31:55.754Z,89.61
2019-04-30T02:34:30.312Z,89.34
2019-04-30T02:37:09.866Z,89.56
2019-04-30T02:39:41.494Z,89.64
2019-04-30T02:42:13.666Z,89.72
2019-04-30T02:44:46.129Z,89.59
2019-04-30T02:47:20.741Z,89.46
2019-04-30T02:49:53.659Z,89.68
2019-04-30T02:52:29.332Z,89.34
2019-04-30T02:55:03.447Z,89.78
2019-04-30T02:57:34.834Z,89.78
2019-04-30T03:00:10.160Z,89.35
2019-04-30T03:02:41.944Z,89.08
2019-04-30T03:05:14.303Z,89.24
2019-04-30T03:07:45.938Z,88.97
2019-04-30T03:10:19.838Z,88.70
2019-04-30T03:12:50.995Z,88.77
2019-04-30T03:15:23.092Z,88.73
2019-04-30T03:17:56.340Z,88.53
2019-04-30T03:20:35.715Z,88.34
2019-04-30T03:23:02.680Z,87.92
2019-04-30T03:25:34.439Z,88.54
2019-04-30T03:28:05.920Z,88.48
2019-04-30T03:30:41.395Z,87.78
2019-04-30T03:33:12.628Z,87.52
2019-04-30T03:35:47.831Z,87.38
2019-04-30T03:38:17.120Z,87.08
2019-04-30T03:40:50.204Z,88.37
2019-04-30T03:43:22.324Z,89.00
2019-04-30T03:45:53.943Z,88.36
2019-04-30T03:48:25.479Z,88.34
2019-04-30T03:50:57.492Z,87.69
2019-04-30T03:53:30.217Z,87.88
2019-04-30T03:56:01.669Z,87.87
2019-04-30T03:58:33.326Z,87.03
2019-04-30T04:01:06.388Z,87.08
2019-04-30T04:03:55.769Z,87.88
2019-04-30T04:06:29.313Z,87.84
2019-04-30T04:09:06.021Z,86.76
2019-04-30T04:11:39.710Z,85.89
2019-04-30T04:14:11.378Z,84.99
2019-04-30T04:16:43.019Z,84.54
2019-04-30T04:19:14.734Z,84.86
2019-04-30T04:21:46.171Z,83.82
2019-04-30T04:24:20.202Z,82.97
2019-04-30T04:26:51.011Z,83.42
2019-04-30T04:29:22.414Z,82.47
2019-04-30T04:31:53.915Z,82.69
2019-04-30T04:34:25.426Z,81.39
2019-04-30T04:36:56.852Z,80.33
2019-04-30T04:39:29.737Z,78.71
2019-04-30T04:42:01.271Z,76.48
2019-04-30T04:44:32.886Z,77.54
2019-04-30T04:47:04.551Z,76.84
2019-04-30T04:49:36.186Z,76.51
2019-04-30T04:52:10.188Z,75.77
2019-04-30T04:54:40.902Z,75.56
2019-04-30T04:57:17.991Z,73.39
2019-04-30T04:59:45.823Z,71.66
2019-04-30T05:02:32.120Z,68.96
2019-04-30T05:05:00.912Z,70.65
2019-04-30T05:07:32.427Z,73.35
2019-04-30T05:10:09.037Z,71.47
2019-04-30T05:12:40.249Z,69.39
2019-04-30T05:15:19.469Z,67.03
2019-04-30T05:17:51.290Z,65.71
2019-04-30T05:20:22.694Z,67.46
2019-04-30T05:22:54.390Z,67.54
2019-04-30T05:25:26.040Z,65.63
2019-04-30T05:27:58.683Z,67.08
2019-04-30T05:30:30.347Z,64.95
2019-04-30T05:33:01.878Z,64.90
2019-04-30T05:35:33.486Z,59.78
2019-04-30T05:38:05.008Z,59.74
2019-04-30T05:40:39.416Z,54.58
2019-04-30T05:43:11.415Z,57.48
2019-04-30T05:45:43.152Z,61.81
2019-04-30T05:48:14.584Z,64.58
2019-04-30T05:50:46.126Z,66.48
2019-04-30T05:53:19.053Z,68.22
2019-04-30T05:55:50.706Z,67.67
2019-04-30T05:58:22.265Z,68.58
2019-04-30T06:00:53.956Z,67.56
2019-04-30T06:03:30.752Z,68.76
2019-04-30T06:05:59.024Z,68.12
2019-04-30T06:08:32.809Z,68.03
2019-04-30T06:11:09.358Z,68.90
2019-04-30T06:13:54.732Z,69.91
2019-04-30T06:16:27.511Z,70.29
2019-04-30T06:18:58.660Z,68.53
2019-04-30T06:21:30.577Z,68.23
2019-04-30T06:24:02.177Z,60.05
2019-04-30T06:26:33.781Z,49.77
2019-04-30T06:29:05.323Z,45.47
2019-04-30T06:31:37.976Z,45.42
2019-04-30T06:34:10.100Z,45.84
2019-04-30T06:36:51.086Z,50.54
2019-04-30T06:39:16.173Z,52.70
2019-04-30T06:41:49.371Z,53.00
2019-04-30T06:44:21.245Z,54.84
2019-04-30T06:46:53.462Z,58.23
2019-04-30T06:49:28.871Z,58.11
2019-04-30T06:52:00.554Z,58.30
2019-04-30T06:54:32.151Z,61.82
2019-04-30T06:57:03.531Z,61.99
2019-04-30T06:59:35.119Z,60.89
2019-04-30T07:02:06.688Z,62.04
2019-04-30T07:04:40.038Z,61.00
2019-04-30T07:07:14.345Z,62.53
2019-04-30T07:09:53.176Z,62.64
2019-04-30T07:12:27.802Z,61.33
2019-04-30T07:14:59.069Z,60.83
2019-04-30T07:17:30.822Z,61.54
2019-04-30T07:20:02.452Z,59.54
2019-04-30T07:25:09.506Z,59.71
2019-04-30T07:27:41.406Z,60.01
2019-04-30T07:30:12.949Z,61.29
2019-04-30T07:32:44.430Z,61.53
2019-04-30T07:35:15.975Z,61.10
2019-04-30T07:37:49.511Z,61.14
2019-04-30T07:40:20.927Z,61.19
2019-04-30T07:42:52.323Z,60.76
2019-04-30T07:45:25.694Z,60.73
2019-04-30T07:47:59.210Z,60.49
2019-04-30T07:50:31.610Z,59.55
2019-04-30T07:53:06.503Z,59.98
2019-04-30T07:55:39.107Z,60.14
2019-04-30T07:58:10.215Z,59.61
2019-04-30T08:00:41.682Z,59.50
2019-04-30T08:03:24.458Z,59.58
2019-04-30T08:05:59.869Z,58.50
2019-04-30T08:08:31.120Z,58.10
2019-04-30T08:09:36.937Z,61.33
2019-04-30T08:11:03.766Z,57.25
2019-04-30T08:13:37.519Z,57.46
2019-04-30T08:16:09.849Z,57.26
2019-04-30T08:18:41.375Z,55.92
2019-04-30T08:21:12.860Z,56.17
2019-04-30T08:23:44.312Z,56.20
2019-04-30T08:26:15.879Z,57.18
2019-04-30T08:28:48.760Z,56.84
2019-04-30T08:31:20.458Z,56.50
2019-04-30T08:33:52.028Z,56.26
2019-04-30T08:36:23.489Z,56.53
2019-04-30T08:38:56.310Z,56.12
2019-04-30T08:41:29.217Z,55.85
2019-04-30T08:44:00.956Z,55.25
2019-04-30T08:46:32.657Z,55.23
2019-04-30T08:49:04.162Z,54.98
2019-04-30T08:51:35.787Z,55.02
2019-04-30T08:54:07.175Z,55.72
2019-04-30T08:56:38.880Z,55.01
2019-04-30T08:59:11.140Z,54.79
2019-04-30T09:01:42.992Z,53.69
2019-04-30T09:04:14.533Z,53.48
2019-04-30T09:06:45.937Z,53.99
2019-04-30T09:09:18.806Z,53.57
2019-04-30T09:11:55.459Z,53.11
2019-04-30T09:14:23.528Z,52.46
2019-04-30T09:16:55.354Z,51.64
2019-04-30T09:19:29.750Z,51.91
2019-04-30T09:22:02.783Z,51.56
2019-04-30T09:24:34.352Z,51.34
2019-04-30T09:27:05.655Z,51.59
2019-04-30T09:29:39.061Z,51.55
2019-04-30T09:32:10.275Z,50.18
2019-04-30T09:34:41.712Z,50.79
2019-04-30T09:37:12.997Z,49.87
2019-04-30T09:39:44.438Z,49.75
2019-04-30T09:42:15.861Z,48.84
2019-04-30T09:44:49.301Z,48.46
2019-04-30T09:47:20.658Z,48.26
2019-04-30T09:49:53.799Z,47.60
2019-04-30T09:52:25.322Z,47.78
2019-04-30T09:54:56.752Z,45.69
2019-04-30T09:57:29.018Z,46.03
2019-04-30T10:00:00.696Z,46.76
2019-04-30T10:02:32.264Z,48.42
2019-04-30T10:05:05.954Z,50.50
2019-04-30T10:07:39.323Z,51.99
2019-04-30T10:10:13.204Z,53.29
2019-04-30T10:12:44.962Z,53.04
2019-04-30T10:15:18.937Z,53.94
2019-04-30T10:17:52.714Z,54.46
2019-04-30T10:20:29.865Z,55.01
2019-04-30T10:23:01.547Z,54.80
2019-04-30T10:25:34.009Z,54.88
2019-04-30T10:28:06.128Z,54.17
2019-04-30T10:30:38.279Z,54.36
2019-04-30T10:33:10.147Z,54.18
2019-04-30T10:35:41.736Z,54.13
2019-04-30T10:38:14.374Z,53.60
2019-04-30T10:40:45.932Z,54.60
2019-04-30T10:43:17.425Z,53.96
2019-04-30T10:45:48.785Z,52.36
2019-04-30T10:48:20.466Z,52.38
2019-04-30T10:50:52.434Z,50.84
2019-04-30T10:53:24.048Z,50.76
2019-04-30T10:55:56.607Z,51.33
2019-04-30T10:58:28.220Z,51.37
2019-04-30T11:01:02.014Z,51.99
2019-04-30T11:03:33.079Z,50.68
2019-04-30T11:06:04.747Z,50.36
2019-04-30T11:08:36.249Z,49.32
2019-04-30T11:11:07.772Z,50.14
2019-04-30T11:13:39.193Z,50.40
2019-04-30T11:16:14.737Z,50.92
2019-04-30T11:18:44.168Z,51.80
2019-04-30T11:21:19.368Z,51.83
2019-04-30T11:23:50.526Z,51.82
2019-04-30T11:26:22.524Z,51.82
2019-04-30T11:28:54.562Z,52.57
2019-04-30T11:31:28.019Z,52.83
2019-04-30T11:34:01.305Z,53.13
2019-04-30T11:36:32.806Z,53.12
2019-04-30T11:39:08.875Z,53.11
2019-04-30T11:41:40.414Z,52.94
2019-04-30T11:44:11.828Z,52.65
2019-04-30T11:47:01.312Z,53.44
2019-04-30T11:49:32.862Z,53.63
2019-04-30T11:52:04.324Z,53.08
2019-04-30T11:54:35.694Z,53.54
2019-04-30T11:57:08.939Z,54.34
2019-04-30T11:59:40.552Z,54.97
2019-04-30T12:02:13.664Z,55.27
2019-04-30T12:04:45.139Z,54.57
2019-04-30T12:07:21.101Z,54.77
2019-04-30T12:09:56.994Z,54.68
2019-04-30T12:12:28.995Z,55.14
2019-04-30T12:15:02.849Z,55.93
2019-04-30T12:17:34.496Z,55.22
2019-04-30T12:20:08.703Z,55.75
2019-04-30T12:22:40.368Z,54.76
2019-04-30T12:25:11.866Z,54.99
2019-04-30T12:27:43.475Z,54.06
2019-04-30T12:30:15.481Z,54.02
2019-04-30T12:32:46.959Z,53.67
2019-04-30T12:35:18.719Z,53.53
2019-04-30T12:37:52.368Z,53.68
2019-04-30T12:40:28.765Z,52.84
2019-04-30T12:42:56.372Z,53.42
2019-04-30T12:45:29.429Z,53.89
2019-04-30T12:48:02.629Z,53.90
2019-04-30T12:50:39.216Z,54.04
2019-04-30T12:53:24.583Z,53.95
2019-04-30T12:56:06.577Z,54.72
2019-04-30T12:58:37.916Z,55.47
2019-04-30T13:01:09.810Z,55.46
2019-04-30T13:03:41.377Z,56.32
2019-04-30T13:06:14.534Z,55.90
2019-04-30T13:08:46.740Z,55.03
2019-04-30T13:11:21.102Z,54.50
2019-04-30T13:13:52.285Z,54.07
2019-04-30T13:16:24.141Z,53.60
2019-04-30T13:18:55.636Z,53.16
2019-04-30T13:21:28.498Z,53.40
2019-04-30T13:24:01.216Z,54.17
2019-04-30T13:26:32.923Z,54.91
2019-04-30T13:29:08.999Z,55.96
2019-04-30T13:31:40.535Z,55.60
2019-04-30T13:34:30.018Z,55.51
2019-04-30T13:37:01.625Z,55.65
2019-04-30T13:39:48.124Z,55.26
2019-04-30T13:42:18.121Z,55.55
2019-04-30T13:44:49.351Z,55.48
2019-04-30T13:47:21.075Z,55.29
2019-04-30T13:49:52.534Z,55.78
2019-04-30T13:52:24.087Z,55.56
2019-04-30T13:54:55.532Z,56.06
2019-04-30T13:57:27.047Z,56.33
2019-04-30T13:59:58.708Z,56.22
2019-04-30T14:02:31.834Z,56.38
2019-04-30T14:05:14.624Z,58.21
2019-04-30T14:07:57.129Z,58.26
2019-04-30T14:10:30.181Z,59.23
2019-04-30T14:13:03.404Z,58.99
2019-04-30T14:15:34.964Z,59.55
2019-04-30T14:18:06.628Z,58.86
2019-04-30T14:20:38.034Z,58.61
2019-04-30T14:23:10.728Z,58.46
2019-04-30T14:25:42.337Z,58.47
2019-04-30T14:28:13.891Z,58.66
2019-04-30T14:30:45.421Z,58.88
2019-04-30T14:33:25.582Z,59.12
2019-04-30T14:35:50.147Z,58.82
2019-04-30T14:38:21.657Z,59.56
2019-04-30T14:40:53.712Z,59.76
2019-04-30T14:43:42.373Z,60.54
2019-04-30T14:46:30.094Z,60.91
2019-04-30T14:49:07.705Z,60.70
2019-04-30T14:51:39.495Z,61.23
2019-04-30T14:54:12.655Z,61.94
2019-04-30T14:56:45.656Z,61.46
2019-04-30T14:59:24.683Z,61.85
2019-04-30T15:01:59.165Z,62.61
2019-04-30T15:04:30.812Z,62.55
2019-04-30T15:07:02.283Z,62.59
2019-04-30T15:09:33.817Z,62.73
2019-04-30T15:12:05.881Z,62.55
2019-04-30T15:14:38.788Z,63.07
2019-04-30T15:17:11.167Z,63.58
2019-04-30T15:19:42.709Z,63.46
2019-04-30T15:22:14.195Z,63.49
2019-04-30T15:24:45.732Z,63.55
2019-04-30T15:27:19.028Z,63.96
2019-04-30T15:29:57.036Z,64.17
2019-04-30T15:32:23.640Z,64.73
2019-04-30T15:34:55.144Z,65.38
2019-04-30T15:37:28.561Z,65.65
2019-04-30T15:39:59.912Z,65.72
2019-04-30T15:42:33.576Z,66.01
2019-04-30T15:45:06.966Z,66.36
2019-04-30T15:47:38.802Z,66.79
2019-04-30T15:50:11.471Z,66.87
2019-04-30T15:52:42.838Z,67.61
2019-04-30T15:55:14.328Z,68.19
2019-04-30T15:57:59.779Z,68.69
2019-04-30T16:00:32.522Z,69.57
2019-04-30T16:03:18.722Z,70.79
2019-04-30T16:05:51.954Z,71.27
2019-04-30T16:08:26.048Z,72.13
2019-04-30T16:11:00.485Z,72.17
2019-04-30T16:13:34.782Z,72.41
2019-04-30T16:16:06.242Z,72.83
2019-04-30T16:18:42.025Z,73.71
2019-04-30T16:21:13.448Z,74.09
2019-04-30T16:23:44.830Z,74.44
2019-04-30T16:26:16.330Z,74.47
2019-04-30T16:28:49.489Z,74.55
2019-04-30T16:31:22.356Z,74.21
2019-04-30T16:33:53.803Z,74.41
2019-04-30T16:36:25.206Z,74.15
2019-04-30T16:38:58.601Z,74.14
2019-04-30T16:41:31.774Z,74.07
2019-04-30T16:44:03.222Z,74.53
2019-04-30T16:46:34.648Z,73.98
2019-04-30T16:49:06.021Z,74.09
2019-04-30T16:51:38.633Z,74.23
2019-04-30T16:54:10.183Z,74.00
2019-04-30T16:56:41.691Z,74.22
2019-04-30T16:59:17.677Z,74.33
2019-04-30T17:01:57.488Z,74.47
2019-04-30T17:04:40.279Z,74.54
2019-04-30T17:07:16.453Z,74.36
2019-04-30T17:09:59.079Z,74.88
2019-04-30T17:12:51.232Z,74.72
2019-04-30T17:15:25.089Z,75.57
2019-04-30T17:17:58.296Z,75.39
2019-04-30T17:20:29.632Z,75.87
2019-04-30T17:23:01.064Z,76.07
2019-04-30T17:25:32.517Z,76.32
2019-04-30T17:28:03.937Z,77.10
2019-04-30T17:30:35.441Z,77.61
2019-04-30T17:33:09.362Z,77.86
2019-04-30T17:35:40.317Z,78.03
2019-04-30T17:38:11.707Z,77.79
2019-04-30T17:40:43.160Z,77.47
2019-04-30T17:43:14.689Z,77.42
2019-04-30T17:45:46.232Z,77.94
2019-04-30T17:48:17.644Z,77.72
2019-04-30T17:50:49.777Z,78.19
2019-04-30T17:53:21.401Z,78.82
2019-04-30T17:55:52.849Z,78.72
2019-04-30T17:58:24.342Z,78.78
2019-04-30T18:00:57.490Z,79.60
2019-04-30T18:03:29.008Z,80.20
2019-04-30T18:06:00.480Z,80.05
2019-04-30T18:08:31.914Z,80.43
2019-04-30T18:11:03.419Z,80.75
2019-04-30T18:13:34.915Z,81.69
2019-04-30T18:16:06.482Z,82.29
2019-04-30T18:18:55.721Z,82.70
2019-04-30T18:21:31.497Z,83.25
2019-04-30T18:24:16.641Z,83.20
2019-04-30T18:26:53.417Z,83.66
2019-04-30T18:29:24.889Z,82.03
2019-04-30T18:31:56.619Z,81.91
2019-04-30T18:34:29.176Z,81.87
2019-04-30T18:37:00.799Z,81.89
2019-04-30T18:39:32.269Z,81.88
2019-04-30T18:42:03.793Z,82.04
2019-04-30T18:44:35.268Z,82.35
2019-04-30T18:47:08.921Z,82.54
2019-04-30T18:49:41.035Z,82.53
2019-04-30T18:52:12.495Z,82.57
2019-04-30T18:54:44.020Z,82.78
2019-04-30T18:57:15.486Z,83.25
2019-04-30T18:59:46.985Z,83.38
2019-04-30T19:02:19.512Z,83.44
2019-04-30T19:04:51.186Z,83.51
2019-04-30T19:07:24.532Z,83.12
2019-04-30T19:09:58.874Z,83.34
2019-04-30T19:12:41.064Z,83.46
2019-04-30T19:15:16.859Z,83.37
2019-04-30T19:17:52.798Z,83.25
2019-04-30T19:20:25.889Z,83.72
2019-04-30T19:22:57.326Z,83.60
2019-04-30T19:25:28.999Z,83.33
2019-04-30T19:28:11.631Z,83.63
2019-04-30T19:30:33.818Z,84.03
2019-04-30T19:33:05.423Z,84.03
2019-04-30T19:35:37.027Z,84.29
2019-04-30T19:38:09.210Z,84.46
2019-04-30T19:40:40.819Z,84.43
2019-04-30T19:43:12.580Z,84.52
2019-04-30T19:45:44.020Z,84.49
2019-04-30T19:48:16.183Z,84.25
2019-04-30T19:50:48.915Z,84.85
2019-04-30T19:53:22.307Z,84.74
2019-04-30T19:55:53.854Z,84.23
2019-04-30T19:58:37.751Z,84.07
2019-04-30T20:00:59.503Z,84.22
2019-04-30T20:03:31.164Z,84.21
2019-04-30T20:06:02.572Z,84.33
2019-04-30T20:08:34.025Z,84.28
2019-04-30T20:11:05.402Z,84.48
2019-04-30T20:13:37.421Z,84.98
2019-04-30T20:16:09.614Z,84.96
2019-04-30T20:18:41.145Z,84.63
2019-04-30T20:21:14.154Z,84.46
2019-04-30T20:23:45.541Z,84.95
2019-04-30T20:26:16.891Z,84.45
2019-04-30T20:28:48.760Z,84.44
2019-04-30T20:31:20.235Z,84.93
2019-04-30T20:33:53.699Z,84.72
2019-04-30T20:36:24.764Z,85.01
2019-04-30T20:38:57.837Z,85.63
2019-04-30T20:41:30.603Z,85.56
2019-04-30T20:44:01.988Z,85.17
2019-04-30T20:46:35.331Z,85.36
2019-04-30T20:49:06.826Z,85.45
2019-04-30T20:51:40.157Z,85.47
2019-04-30T20:54:11.601Z,85.49
2019-04-30T20:56:43.032Z,85.36
2019-04-30T20:59:14.500Z,85.79
2019-04-30T21:01:46.007Z,85.88
2019-04-30T21:04:20.421Z,86.21
2019-04-30T21:06:50.756Z,86.34
2019-04-30T21:09:22.125Z,86.57
2019-04-30T21:11:53.583Z,86.49
2019-04-30T21:14:25.056Z,86.55
2019-04-30T21:16:56.540Z,86.81
2019-04-30T21:19:28.008Z,86.80
2019-04-30T21:21:59.676Z,86.46
2019-04-30T21:24:31.192Z,86.68
2019-04-30T21:27:02.600Z,87.16
2019-04-30T21:29:34.049Z,86.87
2019-04-30T21:32:09.889Z,86.60
2019-04-30T21:34:43.115Z,86.62
2019-04-30T21:37:14.695Z,87.00
2019-04-30T21:39:46.139Z,86.82
2019-04-30T21:42:17.655Z,86.53
2019-04-30T21:44:48.991Z,86.40
2019-04-30T21:47:20.414Z,86.26
2019-04-30T21:49:51.770Z,86.71
2019-04-30T21:52:23.248Z,86.71
2019-04-30T21:54:54.668Z,86.18
2019-04-30T21:57:26.085Z,86.29
2019-04-30T21:59:58.775Z,86.25
2019-04-30T22:02:30.533Z,86.51
2019-04-30T22:05:05.442Z,86.35
2019-04-30T22:07:36.940Z,85.91
2019-04-30T22:10:08.839Z,86.10
2019-04-30T22:12:40.479Z,86.05
2019-04-30T22:15:13.662Z,86.67
2019-04-30T22:17:45.134Z,86.04
2019-04-30T22:20:16.559Z,86.18
2019-04-30T22:22:49.001Z,86.28
2019-04-30T22:25:20.455Z,86.26
2019-04-30T22:27:51.898Z,86.67
2019-04-30T22:30:23.274Z,86.54
2019-04-30T22:32:54.791Z,86.08
2019-04-30T22:35:27.774Z,86.62
2019-04-30T22:38:03.655Z,86.97
2019-04-30T22:40:35.095Z,86.90
2019-04-30T22:43:06.572Z,87.01
2019-04-30T22:45:43.751Z,87.17
2019-04-30T22:48:15.192Z,87.11
2019-04-30T22:50:46.624Z,87.39
2019-04-30T22:53:18.077Z,87.42
2019-04-30T22:55:49.456Z,87.38
2019-04-30T22:58:20.947Z,87.57
2019-04-30T23:00:54.061Z,87.98
2019-04-30T23:03:27.192Z,87.79
2019-04-30T23:05:58.788Z,87.79
2019-04-30T23:08:30.232Z,87.72
2019-04-30T23:11:01.591Z,87.74
2019-04-30T23:13:33.070Z,87.68
2019-04-30T23:16:05.964Z,87.71
2019-04-30T23:18:37.351Z,87.80
2019-04-30T23:21:08.708Z,87.91
2019-04-30T23:23:40.155Z,88.08
2019-04-30T23:26:11.546Z,88.36
2019-04-30T23:28:42.954Z,88.45
2019-04-30T23:31:14.339Z,88.46
2019-04-30T23:33:45.762Z,88.40
2019-04-30T23:36:18.258Z,88.73
2019-04-30T23:38:49.687Z,88.97
2019-04-30T23:41:21.375Z,89.12
2019-04-30T23:43:55.045Z,89.24
2019-04-30T23:46:26.037Z,89.60
2019-04-30T23:48:57.554Z,89.81
2019-04-30T23:51:29.040Z,89.90
2019-04-30T23:54:00.458Z,90.25
2019-04-30T23:56:31.845Z,90.38
2019-04-30T23:59:03.284Z,90.56
